sensor_id;sensor_type;location;lat;lon;timestamp;temperature;humidity
9157;DHT22;4613;48.392;9.998;2023-04-24T00:01:57;11.90;99.90
9157;DHT22;4613;48.392;9.998;2023-04-24T00:04:49;12.10;99.90
9157;DHT22;4613;48.392;9.998;2023-04-24T00:07:38;11.50;99.90
9157;DHT22;4613;48.392;9.998;2023-04-24T00:10:27;11.20;99.90
9157;DHT22;4613;48.392;9.998;2023-04-24T00:13:17;10.90;99.90
9157;DHT22;4613;48.392;9.998;2023-04-24T00:16:06;11.00;99.90
9157;DHT22;4613;48.392;9.998;2023-04-24T00:18:55;11.00;99.90
9157;DHT22;4613;48.392;9.998;2023-04-24T00:21:44;10.70;99.90
9157;DHT22;4613;48.392;9.998;2023-04-24T00:24:34;11.00;99.90
9157;DHT22;4613;48.392;9.998;2023-04-24T00:27:23;11.20;99.90
9157;DHT22;4613;48.392;9.998;2023-04-24T00:30:13;11.40;99.90
9157;DHT22;4613;48.392;9.998;2023-04-24T00:33:03;11.40;99.90
9157;DHT22;4613;48.392;9.998;2023-04-24T00:35:53;10.90;99.90
9157;DHT22;4613;48.392;9.998;2023-04-24T00:38:43;11.10;99.90
9157;DHT22;4613;48.392;9.998;2023-04-24T00:41:32;10.70;99.90
9157;DHT22;4613;48.392;9.998;2023-04-24T00:44:22;10.70;99.90
9157;DHT22;4613;48.392;9.998;2023-04-24T00:47:11;11.30;99.90
9157;DHT22;4613;48.392;9.998;2023-04-24T00:50:05;11.50;99.90
9157;DHT22;4613;48.392;9.998;2023-04-24T00:52:55;11.30;99.90
9157;DHT22;4613;48.392;9.998;2023-04-24T00:55:44;11.30;99.90
9157;DHT22;4613;48.392;9.998;2023-04-24T00:58:34;11.50;99.90
9157;DHT22;4613;48.392;9.998;2023-04-24T01:01:24;11.50;99.90
9157;DHT22;4613;48.392;9.998;2023-04-24T01:04:14;11.30;99.90
9157;DHT22;4613;48.392;9.998;2023-04-24T01:07:04;11.50;99.90
9157;DHT22;4613;48.392;9.998;2023-04-24T01:09:59;11.30;99.90
9157;DHT22;4613;48.392;9.998;2023-04-24T01:12:50;11.50;99.90
9157;DHT22;4613;48.392;9.998;2023-04-24T01:15:40;11.40;99.90
9157;DHT22;4613;48.392;9.998;2023-04-24T01:18:31;11.30;99.90
9157;DHT22;4613;48.392;9.998;2023-04-24T01:21:21;11.20;99.90
9157;DHT22;4613;48.392;9.998;2023-04-24T01:24:13;11.30;99.90
9157;DHT22;4613;48.392;9.998;2023-04-24T01:27:03;11.30;99.90
9157;DHT22;4613;48.392;9.998;2023-04-24T01:29:52;11.30;99.90
9157;DHT22;4613;48.392;9.998;2023-04-24T01:32:43;11.10;99.90
9157;DHT22;4613;48.392;9.998;2023-04-24T01:35:33;11.30;99.90
9157;DHT22;4613;48.392;9.998;2023-04-24T01:38:23;11.70;99.90
9157;DHT22;4613;48.392;9.998;2023-04-24T01:41:14;11.80;99.90
9157;DHT22;4613;48.392;9.998;2023-04-24T01:44:03;11.80;99.90
9157;DHT22;4613;48.392;9.998;2023-04-24T01:46:53;11.80;99.90
9157;DHT22;4613;48.392;9.998;2023-04-24T01:49:43;11.60;99.90
9157;DHT22;4613;48.392;9.998;2023-04-24T01:52:32;11.40;99.90
9157;DHT22;4613;48.392;9.998;2023-04-24T01:55:22;11.50;99.90
9157;DHT22;4613;48.392;9.998;2023-04-24T01:58:11;11.50;99.90
9157;DHT22;4613;48.392;9.998;2023-04-24T02:01:00;11.70;99.90
9157;DHT22;4613;48.392;9.998;2023-04-24T02:03:50;11.60;99.90
9157;DHT22;4613;48.392;9.998;2023-04-24T02:06:40;11.00;99.90
9157;DHT22;4613;48.392;9.998;2023-04-24T02:09:29;10.70;99.90
9157;DHT22;4613;48.392;9.998;2023-04-24T02:12:19;10.80;99.90
9157;DHT22;4613;48.392;9.998;2023-04-24T02:15:08;10.90;99.90
9157;DHT22;4613;48.392;9.998;2023-04-24T02:18:00;10.70;99.90
9157;DHT22;4613;48.392;9.998;2023-04-24T02:20:49;11.10;99.90
9157;DHT22;4613;48.392;9.998;2023-04-24T02:23:38;11.10;99.90
9157;DHT22;4613;48.392;9.998;2023-04-24T02:26:27;10.90;99.90
9157;DHT22;4613;48.392;9.998;2023-04-24T02:29:16;10.80;99.90
9157;DHT22;4613;48.392;9.998;2023-04-24T02:32:05;10.90;99.90
9157;DHT22;4613;48.392;9.998;2023-04-24T02:34:56;11.00;99.90
9157;DHT22;4613;48.392;9.998;2023-04-24T02:37:45;10.80;99.90
9157;DHT22;4613;48.392;9.998;2023-04-24T02:40:35;10.40;99.90
9157;DHT22;4613;48.392;9.998;2023-04-24T02:43:24;10.30;99.90
9157;DHT22;4613;48.392;9.998;2023-04-24T02:46:14;10.70;99.90
9157;DHT22;4613;48.392;9.998;2023-04-24T02:49:03;10.30;99.90
9157;DHT22;4613;48.392;9.998;2023-04-24T02:51:52;10.20;99.90
9157;DHT22;4613;48.392;9.998;2023-04-24T02:54:42;10.40;99.90
9157;DHT22;4613;48.392;9.998;2023-04-24T02:57:31;10.10;99.90
9157;DHT22;4613;48.392;9.998;2023-04-24T03:00:21;10.10;99.90
9157;DHT22;4613;48.392;9.998;2023-04-24T03:03:10;9.90;99.90
9157;DHT22;4613;48.392;9.998;2023-04-24T03:06:00;10.00;99.90
9157;DHT22;4613;48.392;9.998;2023-04-24T03:08:49;10.30;99.90
9157;DHT22;4613;48.392;9.998;2023-04-24T03:11:38;10.30;99.90
9157;DHT22;4613;48.392;9.998;2023-04-24T03:14:28;10.20;99.90
9157;DHT22;4613;48.392;9.998;2023-04-24T03:17:20;10.10;99.90
9157;DHT22;4613;48.392;9.998;2023-04-24T03:20:09;10.20;99.90
9157;DHT22;4613;48.392;9.998;2023-04-24T03:22:59;10.10;99.90
9157;DHT22;4613;48.392;9.998;2023-04-24T03:25:49;10.10;99.90
9157;DHT22;4613;48.392;9.998;2023-04-24T03:28:41;10.20;99.90
9157;DHT22;4613;48.392;9.998;2023-04-24T03:31:30;10.70;99.90
9157;DHT22;4613;48.392;9.998;2023-04-24T03:34:22;10.30;99.90
9157;DHT22;4613;48.392;9.998;2023-04-24T03:37:12;10.20;99.90
9157;DHT22;4613;48.392;9.998;2023-04-24T03:40:06;10.20;99.90
9157;DHT22;4613;48.392;9.998;2023-04-24T03:42:58;10.40;99.90
9157;DHT22;4613;48.392;9.998;2023-04-24T03:45:47;10.20;99.90
9157;DHT22;4613;48.392;9.998;2023-04-24T03:48:37;9.90;99.90
9157;DHT22;4613;48.392;9.998;2023-04-24T03:51:26;10.10;99.90
9157;DHT22;4613;48.392;9.998;2023-04-24T03:54:20;10.30;99.90
9157;DHT22;4613;48.392;9.998;2023-04-24T03:57:14;10.50;99.90
9157;DHT22;4613;48.392;9.998;2023-04-24T04:00:14;10.60;99.90
9157;DHT22;4613;48.392;9.998;2023-04-24T04:03:04;10.40;99.90
9157;DHT22;4613;48.392;9.998;2023-04-24T04:05:53;10.40;99.90
9157;DHT22;4613;48.392;9.998;2023-04-24T04:08:43;10.10;99.90
9157;DHT22;4613;48.392;9.998;2023-04-24T04:11:33;10.20;99.90
9157;DHT22;4613;48.392;9.998;2023-04-24T04:14:23;10.30;99.90
9157;DHT22;4613;48.392;9.998;2023-04-24T04:17:13;10.20;99.90
9157;DHT22;4613;48.392;9.998;2023-04-24T04:20:03;10.40;99.90
9157;DHT22;4613;48.392;9.998;2023-04-24T04:22:57;10.20;99.90
9157;DHT22;4613;48.392;9.998;2023-04-24T04:25:57;10.00;99.90
9157;DHT22;4613;48.392;9.998;2023-04-24T04:28:54;10.30;99.90
9157;DHT22;4613;48.392;9.998;2023-04-24T04:31:44;10.30;99.90
9157;DHT22;4613;48.392;9.998;2023-04-24T04:34:37;10.20;99.90
9157;DHT22;4613;48.392;9.998;2023-04-24T04:37:33;10.30;99.90
9157;DHT22;4613;48.392;9.998;2023-04-24T04:40:32;10.50;99.90
9157;DHT22;4613;48.392;9.998;2023-04-24T04:43:25;10.50;99.90
9157;DHT22;4613;48.392;9.998;2023-04-24T04:46:17;10.50;99.90
9157;DHT22;4613;48.392;9.998;2023-04-24T04:49:20;10.10;99.90
9157;DHT22;4613;48.392;9.998;2023-04-24T04:52:11;10.10;99.90
9157;DHT22;4613;48.392;9.998;2023-04-24T04:55:01;10.10;99.90
9157;DHT22;4613;48.392;9.998;2023-04-24T04:58:10;10.20;99.90
9157;DHT22;4613;48.392;9.998;2023-04-24T05:01:00;10.50;99.90
9157;DHT22;4613;48.392;9.998;2023-04-24T05:04:05;10.40;99.90
9157;DHT22;4613;48.392;9.998;2023-04-24T05:06:54;10.20;99.90
9157;DHT22;4613;48.392;9.998;2023-04-24T05:09:45;10.00;99.90
9157;DHT22;4613;48.392;9.998;2023-04-24T05:12:35;10.10;99.90
9157;DHT22;4613;48.392;9.998;2023-04-24T05:15:26;10.40;99.90
9157;DHT22;4613;48.392;9.998;2023-04-24T05:18:15;10.70;99.90
9157;DHT22;4613;48.392;9.998;2023-04-24T05:21:06;10.70;99.90
9157;DHT22;4613;48.392;9.998;2023-04-24T05:23:55;10.30;99.90
9157;DHT22;4613;48.392;9.998;2023-04-24T05:26:47;10.30;99.90
9157;DHT22;4613;48.392;9.998;2023-04-24T05:29:38;10.50;99.90
9157;DHT22;4613;48.392;9.998;2023-04-24T05:32:29;10.40;99.90
9157;DHT22;4613;48.392;9.998;2023-04-24T05:35:19;10.40;99.90
9157;DHT22;4613;48.392;9.998;2023-04-24T05:38:08;10.40;99.90
9157;DHT22;4613;48.392;9.998;2023-04-24T05:40:58;10.30;99.90
9157;DHT22;4613;48.392;9.998;2023-04-24T05:43:48;10.50;99.90
9157;DHT22;4613;48.392;9.998;2023-04-24T05:46:38;10.40;99.90
9157;DHT22;4613;48.392;9.998;2023-04-24T05:49:28;10.50;99.90
9157;DHT22;4613;48.392;9.998;2023-04-24T05:52:18;10.50;99.90
9157;DHT22;4613;48.392;9.998;2023-04-24T05:55:08;10.60;99.90
9157;DHT22;4613;48.392;9.998;2023-04-24T05:58:00;10.40;99.90
9157;DHT22;4613;48.392;9.998;2023-04-24T06:00:50;10.90;99.90
9157;DHT22;4613;48.392;9.998;2023-04-24T06:03:41;10.80;99.90
9157;DHT22;4613;48.392;9.998;2023-04-24T06:06:31;10.60;99.90
9157;DHT22;4613;48.392;9.998;2023-04-24T06:09:25;10.70;99.90
9157;DHT22;4613;48.392;9.998;2023-04-24T06:12:14;11.00;99.90
9157;DHT22;4613;48.392;9.998;2023-04-24T06:15:18;11.10;99.90
9157;DHT22;4613;48.392;9.998;2023-04-24T06:18:33;11.10;99.90
9157;DHT22;4613;48.392;9.998;2023-04-24T06:21:23;10.70;99.90
9157;DHT22;4613;48.392;9.998;2023-04-24T06:24:14;10.80;99.90
9157;DHT22;4613;48.392;9.998;2023-04-24T06:27:04;10.20;99.90
9157;DHT22;4613;48.392;9.998;2023-04-24T06:30:00;10.10;99.90
9157;DHT22;4613;48.392;9.998;2023-04-24T06:32:50;10.10;99.90
9157;DHT22;4613;48.392;9.998;2023-04-24T06:35:40;9.90;99.90
9157;DHT22;4613;48.392;9.998;2023-04-24T06:38:29;10.00;99.90
9157;DHT22;4613;48.392;9.998;2023-04-24T06:41:18;10.20;99.90
9157;DHT22;4613;48.392;9.998;2023-04-24T06:44:07;10.10;99.90
9157;DHT22;4613;48.392;9.998;2023-04-24T06:46:57;10.20;99.90
9157;DHT22;4613;48.392;9.998;2023-04-24T06:49:46;10.10;99.90
9157;DHT22;4613;48.392;9.998;2023-04-24T06:52:35;10.10;99.90
9157;DHT22;4613;48.392;9.998;2023-04-24T06:55:25;10.20;99.90
9157;DHT22;4613;48.392;9.998;2023-04-24T06:58:14;10.40;99.90
9157;DHT22;4613;48.392;9.998;2023-04-24T07:01:04;10.10;99.90
9157;DHT22;4613;48.392;9.998;2023-04-24T07:03:53;10.20;99.90
9157;DHT22;4613;48.392;9.998;2023-04-24T07:06:42;10.10;99.90
9157;DHT22;4613;48.392;9.998;2023-04-24T07:09:31;10.20;99.90
9157;DHT22;4613;48.392;9.998;2023-04-24T07:12:23;10.30;99.90
9157;DHT22;4613;48.392;9.998;2023-04-24T07:15:12;10.20;99.90
9157;DHT22;4613;48.392;9.998;2023-04-24T07:18:02;10.60;99.90
9157;DHT22;4613;48.392;9.998;2023-04-24T07:20:52;10.90;99.90
9157;DHT22;4613;48.392;9.998;2023-04-24T07:23:42;10.60;99.90
9157;DHT22;4613;48.392;9.998;2023-04-24T07:26:31;10.50;99.90
9157;DHT22;4613;48.392;9.998;2023-04-24T07:29:20;10.50;99.90
9157;DHT22;4613;48.392;9.998;2023-04-24T07:32:10;11.00;99.90
9157;DHT22;4613;48.392;9.998;2023-04-24T07:35:00;11.90;99.90
9157;DHT22;4613;48.392;9.998;2023-04-24T07:37:49;11.30;99.90
9157;DHT22;4613;48.392;9.998;2023-04-24T07:40:39;11.20;99.90
9157;DHT22;4613;48.392;9.998;2023-04-24T07:43:28;11.60;99.90
9157;DHT22;4613;48.392;9.998;2023-04-24T07:46:17;11.20;99.90
9157;DHT22;4613;48.392;9.998;2023-04-24T07:49:07;11.30;99.90
9157;DHT22;4613;48.392;9.998;2023-04-24T07:51:56;11.90;99.90
9157;DHT22;4613;48.392;9.998;2023-04-24T07:54:45;11.90;99.90
9157;DHT22;4613;48.392;9.998;2023-04-24T07:57:34;12.50;99.90
9157;DHT22;4613;48.392;9.998;2023-04-24T08:00:24;12.40;99.90
9157;DHT22;4613;48.392;9.998;2023-04-24T08:03:14;12.90;99.90
9157;DHT22;4613;48.392;9.998;2023-04-24T08:06:03;12.60;99.90
9157;DHT22;4613;48.392;9.998;2023-04-24T08:08:56;11.70;99.90
9157;DHT22;4613;48.392;9.998;2023-04-24T08:11:46;12.40;99.90
9157;DHT22;4613;48.392;9.998;2023-04-24T08:14:35;11.60;99.90
9157;DHT22;4613;48.392;9.998;2023-04-24T08:17:24;12.80;99.90
9157;DHT22;4613;48.392;9.998;2023-04-24T08:20:14;12.40;99.90
9157;DHT22;4613;48.392;9.998;2023-04-24T08:23:03;12.40;99.90
9157;DHT22;4613;48.392;9.998;2023-04-24T08:25:54;12.40;99.90
9157;DHT22;4613;48.392;9.998;2023-04-24T08:28:43;12.70;99.90
9157;DHT22;4613;48.392;9.998;2023-04-24T08:31:34;12.50;99.90
9157;DHT22;4613;48.392;9.998;2023-04-24T08:34:24;12.50;99.90
9157;DHT22;4613;48.392;9.998;2023-04-24T08:37:14;13.10;99.90
9157;DHT22;4613;48.392;9.998;2023-04-24T08:40:06;13.70;99.90
9157;DHT22;4613;48.392;9.998;2023-04-24T08:42:59;13.50;99.90
9157;DHT22;4613;48.392;9.998;2023-04-24T08:45:49;14.00;99.90
9157;DHT22;4613;48.392;9.998;2023-04-24T08:48:39;14.30;99.90
9157;DHT22;4613;48.392;9.998;2023-04-24T08:51:29;13.50;99.90
9157;DHT22;4613;48.392;9.998;2023-04-24T08:54:21;12.50;99.90
9157;DHT22;4613;48.392;9.998;2023-04-24T08:57:10;11.50;99.90
9157;DHT22;4613;48.392;9.998;2023-04-24T09:00:00;10.80;99.90
9157;DHT22;4613;48.392;9.998;2023-04-24T09:02:52;11.30;99.90
9157;DHT22;4613;48.392;9.998;2023-04-24T09:05:47;11.40;99.90
9157;DHT22;4613;48.392;9.998;2023-04-24T09:08:38;12.30;99.90
9157;DHT22;4613;48.392;9.998;2023-04-24T09:11:31;12.60;99.90
9157;DHT22;4613;48.392;9.998;2023-04-24T09:14:21;12.90;99.90
9157;DHT22;4613;48.392;9.998;2023-04-24T09:17:12;12.30;99.90
9157;DHT22;4613;48.392;9.998;2023-04-24T09:20:01;12.10;99.90
9157;DHT22;4613;48.392;9.998;2023-04-24T09:22:54;12.20;99.90
9157;DHT22;4613;48.392;9.998;2023-04-24T09:25:54;12.00;99.90
9157;DHT22;4613;48.392;9.998;2023-04-24T09:28:43;12.60;99.90
9157;DHT22;4613;48.392;9.998;2023-04-24T09:31:35;12.40;99.90
9157;DHT22;4613;48.392;9.998;2023-04-24T09:34:26;12.90;99.90
9157;DHT22;4613;48.392;9.998;2023-04-24T09:37:29;13.10;99.90
9157;DHT22;4613;48.392;9.998;2023-04-24T09:40:21;13.30;99.90
9157;DHT22;4613;48.392;9.998;2023-04-24T09:43:11;13.50;99.90
9157;DHT22;4613;48.392;9.998;2023-04-24T09:46:06;13.70;99.90
9157;DHT22;4613;48.392;9.998;2023-04-24T09:48:57;13.60;99.90
9157;DHT22;4613;48.392;9.998;2023-04-24T09:51:46;13.20;99.90
9157;DHT22;4613;48.392;9.998;2023-04-24T09:54:37;13.70;99.90
9157;DHT22;4613;48.392;9.998;2023-04-24T09:57:27;13.50;99.90
9157;DHT22;4613;48.392;9.998;2023-04-24T10:00:22;13.60;99.90
9157;DHT22;4613;48.392;9.998;2023-04-24T10:03:12;13.40;99.90
9157;DHT22;4613;48.392;9.998;2023-04-24T10:06:03;13.70;99.90
9157;DHT22;4613;48.392;9.998;2023-04-24T10:08:57;13.10;99.90
9157;DHT22;4613;48.392;9.998;2023-04-24T10:11:49;13.10;99.90
9157;DHT22;4613;48.392;9.998;2023-04-24T10:14:38;13.50;99.90
9157;DHT22;4613;48.392;9.998;2023-04-24T10:17:28;13.10;99.90
9157;DHT22;4613;48.392;9.998;2023-04-24T10:20:23;13.40;99.90
9157;DHT22;4613;48.392;9.998;2023-04-24T10:23:13;14.10;99.90
9157;DHT22;4613;48.392;9.998;2023-04-24T10:26:03;14.80;99.90
9157;DHT22;4613;48.392;9.998;2023-04-24T10:28:54;14.40;99.90
9157;DHT22;4613;48.392;9.998;2023-04-24T10:31:46;14.50;99.90
9157;DHT22;4613;48.392;9.998;2023-04-24T10:34:36;14.30;99.90
9157;DHT22;4613;48.392;9.998;2023-04-24T10:37:25;14.50;99.90
9157;DHT22;4613;48.392;9.998;2023-04-24T10:40:26;14.70;99.90
9157;DHT22;4613;48.392;9.998;2023-04-24T10:43:17;14.70;99.90
9157;DHT22;4613;48.392;9.998;2023-04-24T10:46:08;15.00;99.20
9157;DHT22;4613;48.392;9.998;2023-04-24T10:48:59;15.30;98.30
9157;DHT22;4613;48.392;9.998;2023-04-24T10:51:50;14.90;98.30
9157;DHT22;4613;48.392;9.998;2023-04-24T10:54:45;14.70;98.90
9157;DHT22;4613;48.392;9.998;2023-04-24T10:57:36;13.90;98.80
9157;DHT22;4613;48.392;9.998;2023-04-24T11:00:26;13.40;99.80
9157;DHT22;4613;48.392;9.998;2023-04-24T11:03:24;13.50;99.90
9157;DHT22;4613;48.392;9.998;2023-04-24T11:06:14;13.20;99.90
9157;DHT22;4613;48.392;9.998;2023-04-24T11:09:05;13.50;99.90
9157;DHT22;4613;48.392;9.998;2023-04-24T11:12:05;14.10;99.90
9157;DHT22;4613;48.392;9.998;2023-04-24T11:15:01;14.90;99.90
9157;DHT22;4613;48.392;9.998;2023-04-24T11:17:55;14.50;99.40
9157;DHT22;4613;48.392;9.998;2023-04-24T11:20:44;14.40;99.90
9157;DHT22;4613;48.392;9.998;2023-04-24T11:23:39;14.50;99.90
9157;DHT22;4613;48.392;9.998;2023-04-24T11:26:28;14.80;99.90
9157;DHT22;4613;48.392;9.998;2023-04-24T11:29:21;14.40;98.90
9157;DHT22;4613;48.392;9.998;2023-04-24T11:35:12;13.80;98.20
9157;DHT22;4613;48.392;9.998;2023-04-24T11:38:02;13.80;98.10
9157;DHT22;4613;48.392;9.998;2023-04-24T11:40:52;13.30;98.50
9157;DHT22;4613;48.392;9.998;2023-04-24T11:43:42;13.00;98.10
9157;DHT22;4613;48.392;9.998;2023-04-24T11:46:32;12.90;98.80
9157;DHT22;4613;48.392;9.998;2023-04-24T11:49:22;12.80;99.00
9157;DHT22;4613;48.392;9.998;2023-04-24T11:52:11;12.80;99.30
9157;DHT22;4613;48.392;9.998;2023-04-24T11:55:05;12.90;99.60
9157;DHT22;4613;48.392;9.998;2023-04-24T11:57:58;12.80;99.80
9157;DHT22;4613;48.392;9.998;2023-04-24T12:00:56;12.80;98.70
9157;DHT22;4613;48.392;9.998;2023-04-24T12:03:50;13.40;98.90
9157;DHT22;4613;48.392;9.998;2023-04-24T12:06:40;13.80;97.80
9157;DHT22;4613;48.392;9.998;2023-04-24T12:09:40;13.40;95.30
9157;DHT22;4613;48.392;9.998;2023-04-24T12:12:31;13.70;95.80
9157;DHT22;4613;48.392;9.998;2023-04-24T12:15:21;14.00;95.60
9157;DHT22;4613;48.392;9.998;2023-04-24T12:18:12;13.70;95.90
9157;DHT22;4613;48.392;9.998;2023-04-24T12:21:19;14.10;96.20
9157;DHT22;4613;48.392;9.998;2023-04-24T12:24:09;13.90;96.40
9157;DHT22;4613;48.392;9.998;2023-04-24T12:26:59;13.80;95.90
9157;DHT22;4613;48.392;9.998;2023-04-24T12:30:02;14.10;96.50
9157;DHT22;4613;48.392;9.998;2023-04-24T12:32:52;13.80;95.40
9157;DHT22;4613;48.392;9.998;2023-04-24T12:35:43;13.60;95.10
9157;DHT22;4613;48.392;9.998;2023-04-24T12:38:32;13.40;94.90
9157;DHT22;4613;48.392;9.998;2023-04-24T12:41:30;13.50;95.00
9157;DHT22;4613;48.392;9.998;2023-04-24T12:44:19;13.70;94.70
9157;DHT22;4613;48.392;9.998;2023-04-24T12:47:09;13.80;94.70
9157;DHT22;4613;48.392;9.998;2023-04-24T12:49:59;13.60;95.20
9157;DHT22;4613;48.392;9.998;2023-04-24T12:52:49;13.90;95.00
9157;DHT22;4613;48.392;9.998;2023-04-24T12:55:38;13.70;95.30
9157;DHT22;4613;48.392;9.998;2023-04-24T12:58:28;13.60;95.00
9157;DHT22;4613;48.392;9.998;2023-04-24T13:01:18;13.70;94.70
9157;DHT22;4613;48.392;9.998;2023-04-24T13:04:07;13.30;94.70
9157;DHT22;4613;48.392;9.998;2023-04-24T13:06:56;13.50;95.20
9157;DHT22;4613;48.392;9.998;2023-04-24T13:09:47;13.80;95.10
9157;DHT22;4613;48.392;9.998;2023-04-24T13:12:36;13.70;95.30
9157;DHT22;4613;48.392;9.998;2023-04-24T13:15:26;13.50;95.50
9157;DHT22;4613;48.392;9.998;2023-04-24T13:18:15;13.60;95.30
9157;DHT22;4613;48.392;9.998;2023-04-24T13:21:04;13.30;95.10
9157;DHT22;4613;48.392;9.998;2023-04-24T13:23:54;13.30;95.20
9157;DHT22;4613;48.392;9.998;2023-04-24T13:26:43;13.10;95.00
9157;DHT22;4613;48.392;9.998;2023-04-24T13:29:32;13.20;95.30
9157;DHT22;4613;48.392;9.998;2023-04-24T13:32:22;13.40;95.20
9157;DHT22;4613;48.392;9.998;2023-04-24T13:35:11;13.20;95.00
9157;DHT22;4613;48.392;9.998;2023-04-24T13:38:02;12.90;95.00
9157;DHT22;4613;48.392;9.998;2023-04-24T13:40:55;13.10;94.90
9157;DHT22;4613;48.392;9.998;2023-04-24T13:43:45;13.20;95.00
9157;DHT22;4613;48.392;9.998;2023-04-24T13:46:34;13.20;95.00
9157;DHT22;4613;48.392;9.998;2023-04-24T13:49:24;13.30;95.10
9157;DHT22;4613;48.392;9.998;2023-04-24T13:52:16;13.30;95.10
9157;DHT22;4613;48.392;9.998;2023-04-24T13:55:06;13.30;94.90
9157;DHT22;4613;48.392;9.998;2023-04-24T13:57:55;13.30;95.20
9157;DHT22;4613;48.392;9.998;2023-04-24T14:00:45;13.30;95.00
9157;DHT22;4613;48.392;9.998;2023-04-24T14:03:35;12.90;94.60
9157;DHT22;4613;48.392;9.998;2023-04-24T14:06:26;13.10;95.00
9157;DHT22;4613;48.392;9.998;2023-04-24T14:09:16;13.10;94.90
9157;DHT22;4613;48.392;9.998;2023-04-24T14:12:05;12.90;94.30
9157;DHT22;4613;48.392;9.998;2023-04-24T14:14:56;13.10;94.10
9157;DHT22;4613;48.392;9.998;2023-04-24T14:17:45;13.00;94.30
9157;DHT22;4613;48.392;9.998;2023-04-24T14:20:34;13.00;94.50
9157;DHT22;4613;48.392;9.998;2023-04-24T14:23:24;13.10;94.30
9157;DHT22;4613;48.392;9.998;2023-04-24T14:26:13;13.20;94.20
9157;DHT22;4613;48.392;9.998;2023-04-24T14:29:03;13.10;93.90
9157;DHT22;4613;48.392;9.998;2023-04-24T14:31:52;13.20;94.00
9157;DHT22;4613;48.392;9.998;2023-04-24T14:34:41;13.60;93.40
9157;DHT22;4613;48.392;9.998;2023-04-24T14:37:30;13.40;92.80
9157;DHT22;4613;48.392;9.998;2023-04-24T14:40:20;13.50;92.70
9157;DHT22;4613;48.392;9.998;2023-04-24T14:43:09;13.30;92.80
9157;DHT22;4613;48.392;9.998;2023-04-24T14:45:59;13.30;92.30
9157;DHT22;4613;48.392;9.998;2023-04-24T14:48:52;13.30;92.30
9157;DHT22;4613;48.392;9.998;2023-04-24T14:51:41;13.00;92.20
9157;DHT22;4613;48.392;9.998;2023-04-24T14:54:31;13.10;92.40
9157;DHT22;4613;48.392;9.998;2023-04-24T14:57:20;13.40;92.40
9157;DHT22;4613;48.392;9.998;2023-04-24T15:00:10;13.20;92.50
9157;DHT22;4613;48.392;9.998;2023-04-24T15:03:01;13.20;92.50
9157;DHT22;4613;48.392;9.998;2023-04-24T15:05:50;13.40;92.60
9157;DHT22;4613;48.392;9.998;2023-04-24T15:08:39;13.30;92.50
9157;DHT22;4613;48.392;9.998;2023-04-24T15:11:29;13.50;92.80
9157;DHT22;4613;48.392;9.998;2023-04-24T15:14:19;13.40;92.60
9157;DHT22;4613;48.392;9.998;2023-04-24T15:17:08;13.30;92.30
9157;DHT22;4613;48.392;9.998;2023-04-24T15:19:57;13.30;92.60
9157;DHT22;4613;48.392;9.998;2023-04-24T15:22:46;13.30;92.50
9157;DHT22;4613;48.392;9.998;2023-04-24T15:25:36;13.30;92.30
9157;DHT22;4613;48.392;9.998;2023-04-24T15:28:29;13.60;92.20
9157;DHT22;4613;48.392;9.998;2023-04-24T15:31:19;13.50;91.90
9157;DHT22;4613;48.392;9.998;2023-04-24T15:34:09;13.50;91.50
9157;DHT22;4613;48.392;9.998;2023-04-24T15:36:58;13.30;91.50
9157;DHT22;4613;48.392;9.998;2023-04-24T15:39:47;13.10;91.60
9157;DHT22;4613;48.392;9.998;2023-04-24T15:42:37;13.10;91.60
9157;DHT22;4613;48.392;9.998;2023-04-24T15:45:27;13.10;91.60
9157;DHT22;4613;48.392;9.998;2023-04-24T15:48:16;13.00;91.60
9157;DHT22;4613;48.392;9.998;2023-04-24T15:51:06;13.10;91.60
9157;DHT22;4613;48.392;9.998;2023-04-24T15:53:55;13.10;91.80
9157;DHT22;4613;48.392;9.998;2023-04-24T15:56:45;13.20;91.80
9157;DHT22;4613;48.392;9.998;2023-04-24T15:59:34;13.00;91.70
9157;DHT22;4613;48.392;9.998;2023-04-24T16:02:24;12.80;91.70
9157;DHT22;4613;48.392;9.998;2023-04-24T16:05:14;13.00;91.80
9157;DHT22;4613;48.392;9.998;2023-04-24T16:08:03;12.80;91.90
9157;DHT22;4613;48.392;9.998;2023-04-24T16:10:54;12.80;92.20
9157;DHT22;4613;48.392;9.998;2023-04-24T16:13:44;12.70;92.10
9157;DHT22;4613;48.392;9.998;2023-04-24T16:16:34;12.70;92.40
9157;DHT22;4613;48.392;9.998;2023-04-24T16:19:27;12.60;92.10
9157;DHT22;4613;48.392;9.998;2023-04-24T16:22:16;12.90;92.40
9157;DHT22;4613;48.392;9.998;2023-04-24T16:25:08;13.10;92.40
9157;DHT22;4613;48.392;9.998;2023-04-24T16:27:57;12.90;92.50
9157;DHT22;4613;48.392;9.998;2023-04-24T16:30:47;13.20;92.60
9157;DHT22;4613;48.392;9.998;2023-04-24T16:33:37;13.10;92.50
9157;DHT22;4613;48.392;9.998;2023-04-24T16:36:29;13.10;92.70
9157;DHT22;4613;48.392;9.998;2023-04-24T16:39:19;13.00;92.60
9157;DHT22;4613;48.392;9.998;2023-04-24T16:42:08;13.40;92.60
9157;DHT22;4613;48.392;9.998;2023-04-24T16:44:57;13.40;92.60
9157;DHT22;4613;48.392;9.998;2023-04-24T16:47:47;13.40;92.70
9157;DHT22;4613;48.392;9.998;2023-04-24T16:50:37;13.30;92.70
9157;DHT22;4613;48.392;9.998;2023-04-24T16:53:27;13.10;92.60
9157;DHT22;4613;48.392;9.998;2023-04-24T16:56:16;13.30;92.50
9157;DHT22;4613;48.392;9.998;2023-04-24T16:59:07;13.00;92.60
9157;DHT22;4613;48.392;9.998;2023-04-24T17:01:57;13.00;92.50
9157;DHT22;4613;48.392;9.998;2023-04-24T17:04:47;13.10;92.40
9157;DHT22;4613;48.392;9.998;2023-04-24T17:07:38;13.20;92.20
9157;DHT22;4613;48.392;9.998;2023-04-24T17:10:27;13.10;92.20
9157;DHT22;4613;48.392;9.998;2023-04-24T17:13:17;13.00;92.00
9157;DHT22;4613;48.392;9.998;2023-04-24T17:16:07;12.90;91.90
9157;DHT22;4613;48.392;9.998;2023-04-24T17:18:59;13.00;91.80
9157;DHT22;4613;48.392;9.998;2023-04-24T17:21:52;12.80;91.70
9157;DHT22;4613;48.392;9.998;2023-04-24T17:24:42;12.80;91.50
9157;DHT22;4613;48.392;9.998;2023-04-24T17:27:31;12.80;91.60
9157;DHT22;4613;48.392;9.998;2023-04-24T17:30:21;12.60;91.60
9157;DHT22;4613;48.392;9.998;2023-04-24T17:33:10;12.70;91.50
9157;DHT22;4613;48.392;9.998;2023-04-24T17:36:00;12.60;91.40
9157;DHT22;4613;48.392;9.998;2023-04-24T17:38:49;12.70;91.70
9157;DHT22;4613;48.392;9.998;2023-04-24T17:41:39;12.40;91.70
9157;DHT22;4613;48.392;9.998;2023-04-24T17:44:29;12.30;91.80
9157;DHT22;4613;48.392;9.998;2023-04-24T17:47:18;12.50;92.10
9157;DHT22;4613;48.392;9.998;2023-04-24T17:50:10;12.30;92.10
9157;DHT22;4613;48.392;9.998;2023-04-24T17:53:00;12.10;92.20
9157;DHT22;4613;48.392;9.998;2023-04-24T17:55:49;12.10;92.20
9157;DHT22;4613;48.392;9.998;2023-04-24T17:58:39;12.20;92.20
9157;DHT22;4613;48.392;9.998;2023-04-24T18:01:29;12.40;92.30
9157;DHT22;4613;48.392;9.998;2023-04-24T18:04:21;12.40;92.20
9157;DHT22;4613;48.392;9.998;2023-04-24T18:07:10;12.40;92.40
9157;DHT22;4613;48.392;9.998;2023-04-24T18:10:03;12.40;92.50
9157;DHT22;4613;48.392;9.998;2023-04-24T18:12:55;12.40;92.60
9157;DHT22;4613;48.392;9.998;2023-04-24T18:15:44;12.30;92.80
9157;DHT22;4613;48.392;9.998;2023-04-24T18:18:34;12.40;92.90
9157;DHT22;4613;48.392;9.998;2023-04-24T18:21:23;12.30;92.90
9157;DHT22;4613;48.392;9.998;2023-04-24T18:24:13;12.40;93.00
9157;DHT22;4613;48.392;9.998;2023-04-24T18:27:02;12.10;93.00
9157;DHT22;4613;48.392;9.998;2023-04-24T18:29:54;12.00;93.30
9157;DHT22;4613;48.392;9.998;2023-04-24T18:32:43;12.30;93.50
9157;DHT22;4613;48.392;9.998;2023-04-24T18:35:33;12.30;93.70
9157;DHT22;4613;48.392;9.998;2023-04-24T18:38:22;12.20;93.90